createdAt,value
2022-12-27T00:01:17.529Z,-5.10
2022-12-27T00:03:48.833Z,-5.20
2022-12-27T00:06:21.668Z,-5.30
2022-12-27T00:08:52.074Z,-5.30
2022-12-27T00:11:27.948Z,-5.50
2022-12-27T00:13:58.276Z,-5.50
2022-12-27T00:16:28.277Z,-5.50
2022-12-27T00:18:58.841Z,-5.60
2022-12-27T00:21:29.180Z,-5.60
2022-12-27T00:24:00.559Z,-5.60
2022-12-27T00:26:33.410Z,-5.60
2022-12-27T00:29:04.032Z,-5.60
2022-12-27T00:31:34.983Z,-5.60
2022-12-27T00:34:07.143Z,-5.60
2022-12-27T00:36:37.255Z,-5.50
2022-12-27T00:39:07.976Z,-5.50
2022-12-27T00:41:39.672Z,-5.40
2022-12-27T00:44:11.572Z,-5.30
2022-12-27T00:46:43.906Z,-5.20
2022-12-27T00:49:14.363Z,-5.20
2022-12-27T00:51:45.318Z,-5.20
2022-12-27T00:54:16.055Z,-5.20
2022-12-27T00:56:49.713Z,-5.20
2022-12-27T00:59:19.848Z,-5.20
2022-12-27T01:01:50.384Z,-5.20
2022-12-27T01:04:20.859Z,-5.20
2022-12-27T01:06:51.223Z,-5.20
2022-12-27T01:09:21.581Z,-5.20
2022-12-27T01:11:54.509Z,-5.20
2022-12-27T01:14:24.800Z,-5.20
2022-12-27T01:16:55.042Z,-5.30
2022-12-27T01:19:25.391Z,-5.30
2022-12-27T01:21:55.472Z,-5.30
2022-12-27T01:24:26.123Z,-5.30
2022-12-27T01:26:59.241Z,-5.30
2022-12-27T01:29:29.446Z,-5.30
2022-12-27T01:31:59.649Z,-5.20
2022-12-27T01:34:29.822Z,-5.20
2022-12-27T01:37:01.115Z,-5.20
2022-12-27T01:39:33.149Z,-5.20
2022-12-27T01:42:21.830Z,-5.20
2022-12-27T01:44:58.330Z,-5.20
2022-12-27T01:47:36.969Z,-5.20
2022-12-27T01:50:17.427Z,-5.20
2022-12-27T01:52:53.692Z,-5.20
2022-12-27T01:55:29.716Z,-5.20
2022-12-27T01:58:09.253Z,-5.20
2022-12-27T02:00:40.259Z,-5.20
2022-12-27T02:03:10.448Z,-5.20
2022-12-27T02:05:42.366Z,-5.20
2022-12-27T02:08:22.614Z,-5.20
2022-12-27T02:10:54.728Z,-5.20
2022-12-27T02:13:26.696Z,-5.30
2022-12-27T02:15:59.328Z,-5.30
2022-12-27T02:18:30.193Z,-5.30
2022-12-27T02:21:29.339Z,-5.20
2022-12-27T02:24:28.308Z,-5.20
2022-12-27T02:27:04.817Z,-5.20
2022-12-27T02:30:02.706Z,-5.20
2022-12-27T02:32:37.703Z,-5.20
2022-12-27T02:35:14.555Z,-5.30
2022-12-27T02:37:49.845Z,-5.30
2022-12-27T02:40:40.739Z,-5.30
2022-12-27T02:43:28.234Z,-5.30
2022-12-27T02:46:22.615Z,-5.30
2022-12-27T02:49:13.591Z,-5.30
2022-12-27T02:52:18.677Z,-5.30
2022-12-27T02:55:15.632Z,-5.40
2022-12-27T02:57:54.297Z,-5.40
2022-12-27T03:00:44.400Z,-5.40
2022-12-27T03:03:30.234Z,-5.40
2022-12-27T03:06:43.268Z,-5.40
2022-12-27T03:09:50.954Z,-5.50
2022-12-27T03:12:46.266Z,-5.50
2022-12-27T03:15:49.578Z,-5.50
2022-12-27T03:18:27.939Z,-5.50
2022-12-27T03:21:17.192Z,-5.50
2022-12-27T03:24:06.712Z,-5.50
2022-12-27T03:26:39.909Z,-5.50
2022-12-27T03:29:28.434Z,-5.50
2022-12-27T03:32:17.965Z,-5.50
2022-12-27T03:34:55.605Z,-5.50
2022-12-27T03:37:47.628Z,-5.50
2022-12-27T03:40:25.710Z,-5.50
2022-12-27T03:43:14.440Z,-5.50
2022-12-27T03:46:13.825Z,-5.50
2022-12-27T03:48:59.571Z,-5.50
2022-12-27T03:51:38.573Z,-5.50
2022-12-27T03:54:12.822Z,-5.40
2022-12-27T03:56:43.623Z,-5.40
2022-12-27T03:59:14.871Z,-5.40
2022-12-27T04:01:45.038Z,-5.50
2022-12-27T04:04:15.161Z,-5.50
2022-12-27T04:06:47.373Z,-5.50
2022-12-27T04:09:34.560Z,-5.50
2022-12-27T04:12:21.490Z,-5.50
2022-12-27T04:15:08.779Z,-5.50
2022-12-27T04:17:56.359Z,-5.50
2022-12-27T04:20:43.484Z,-5.50
2022-12-27T04:23:31.857Z,-5.50
2022-12-27T04:26:18.951Z,-5.50
2022-12-27T04:29:06.080Z,-5.50
2022-12-27T04:31:53.058Z,-5.50
2022-12-27T04:34:40.361Z,-5.60
2022-12-27T04:37:11.237Z,-5.60
2022-12-27T04:39:42.991Z,-5.60
2022-12-27T04:42:30.060Z,-5.60
2022-12-27T04:45:22.763Z,-5.50
2022-12-27T04:48:09.911Z,-5.50
2022-12-27T04:50:57.026Z,-5.50
2022-12-27T04:53:43.755Z,-5.50
2022-12-27T04:56:15.459Z,-5.50
2022-12-27T04:59:06.373Z,-5.50
2022-12-27T05:02:05.047Z,-5.50
2022-12-27T05:04:38.399Z,-5.50
2022-12-27T05:07:23.223Z,-5.50
2022-12-27T05:10:10.504Z,-5.50
2022-12-27T05:12:59.186Z,-5.50
2022-12-27T05:15:29.331Z,-5.50
2022-12-27T05:18:00.459Z,-5.50
2022-12-27T05:20:30.786Z,-5.50
2022-12-27T05:23:17.914Z,-5.50
2022-12-27T05:25:48.577Z,-5.50
2022-12-27T05:28:20.724Z,-5.50
2022-12-27T05:30:50.834Z,-5.50
2022-12-27T05:33:21.037Z,-5.50
2022-12-27T05:35:51.109Z,-5.60
2022-12-27T05:38:21.708Z,-5.60
2022-12-27T05:40:51.762Z,-5.50
2022-12-27T05:43:23.612Z,-5.50
2022-12-27T05:45:53.672Z,-5.50
2022-12-27T05:48:23.844Z,-5.50
2022-12-27T05:50:53.847Z,-5.60
2022-12-27T05:53:23.920Z,-5.50
2022-12-27T05:55:57.300Z,-5.60
2022-12-27T05:58:29.537Z,-5.60
2022-12-27T06:00:59.747Z,-5.60
2022-12-27T06:03:30.161Z,-5.60
2022-12-27T06:06:04.396Z,-5.60
2022-12-27T06:08:35.316Z,-5.60
2022-12-27T06:11:07.405Z,-5.60
2022-12-27T06:13:39.912Z,-5.60
2022-12-27T06:16:12.554Z,-5.60
2022-12-27T06:18:44.799Z,-5.60
2022-12-27T06:21:16.782Z,-5.50
2022-12-27T06:23:48.875Z,-5.50
2022-12-27T06:26:21.299Z,-5.50
2022-12-27T06:28:54.054Z,-5.50
2022-12-27T06:31:24.915Z,-5.50
2022-12-27T06:33:55.331Z,-5.50
2022-12-27T06:36:28.274Z,-5.50
2022-12-27T06:38:58.711Z,-5.50
2022-12-27T06:41:29.084Z,-5.50
2022-12-27T06:44:01.330Z,-5.60
2022-12-27T06:46:31.391Z,-5.60
2022-12-27T06:49:01.506Z,-5.60
2022-12-27T06:51:31.593Z,-5.60
2022-12-27T06:54:01.734Z,-5.60
2022-12-27T06:56:31.843Z,-5.60
2022-12-27T06:59:03.499Z,-5.60
2022-12-27T07:01:33.635Z,-5.60
2022-12-27T07:04:04.167Z,-5.70
2022-12-27T07:06:37.398Z,-5.70
2022-12-27T07:09:07.901Z,-5.70
2022-12-27T07:11:39.394Z,-5.70
2022-12-27T07:14:12.477Z,-5.70
2022-12-27T07:16:42.568Z,-5.80
2022-12-27T07:19:13.229Z,-5.80
2022-12-27T07:21:43.656Z,-5.80
2022-12-27T07:24:13.835Z,-5.80
2022-12-27T07:26:43.858Z,-5.80
2022-12-27T07:29:15.508Z,-5.80
2022-12-27T07:31:45.696Z,-5.80
2022-12-27T07:34:15.992Z,-5.90
2022-12-27T07:36:46.311Z,-5.90
2022-12-27T07:39:16.804Z,-5.90
2022-12-27T07:41:46.877Z,-5.90
2022-12-27T07:44:18.780Z,-5.90
2022-12-27T07:46:48.853Z,-5.90
2022-12-27T07:49:19.373Z,-5.90
2022-12-27T07:51:49.421Z,-5.90
2022-12-27T07:54:19.539Z,-5.90
2022-12-27T07:56:49.595Z,-5.90
2022-12-27T07:59:21.419Z,-5.90
2022-12-27T08:02:06.690Z,-5.90
2022-12-27T08:04:38.957Z,-5.90
2022-12-27T08:07:14.643Z,-5.90
2022-12-27T08:09:46.233Z,-5.90
2022-12-27T08:12:17.303Z,-5.90
2022-12-27T08:14:49.850Z,-5.90
2022-12-27T08:17:23.730Z,-5.90
2022-12-27T08:19:55.000Z,-5.90
2022-12-27T08:22:25.721Z,-5.90
2022-12-27T08:24:56.604Z,-5.90
2022-12-27T08:27:27.575Z,-5.90
2022-12-27T08:29:59.519Z,-5.90
2022-12-27T08:32:29.536Z,-5.90
2022-12-27T08:35:18.351Z,-6.00
2022-12-27T08:37:49.648Z,-5.90
2022-12-27T08:40:20.149Z,-6.00
2022-12-27T08:42:50.249Z,-6.00
2022-12-27T08:45:22.006Z,-6.00
2022-12-27T08:47:52.218Z,-6.00
2022-12-27T08:50:22.416Z,-6.00
2022-12-27T08:52:52.489Z,-6.00
2022-12-27T08:55:22.546Z,-6.00
2022-12-27T08:57:52.607Z,-6.00
2022-12-27T09:00:24.840Z,-6.00
2022-12-27T09:02:55.242Z,-6.00
2022-12-27T09:05:26.300Z,-6.00
2022-12-27T09:07:56.365Z,-6.00
2022-12-27T09:10:27.238Z,-6.00
2022-12-27T09:12:57.373Z,-6.00
2022-12-27T09:15:29.780Z,-6.00
2022-12-27T09:18:00.006Z,-6.00
2022-12-27T09:20:30.601Z,-6.00
2022-12-27T09:23:02.275Z,-6.00
2022-12-27T09:25:32.479Z,-5.90
2022-12-27T09:28:02.953Z,-5.90
2022-12-27T09:30:34.836Z,-5.90
2022-12-27T09:33:05.061Z,-5.90
2022-12-27T09:35:38.421Z,-5.90
2022-12-27T09:38:08.751Z,-5.90
2022-12-27T09:40:39.771Z,-5.90
2022-12-27T09:43:22.342Z,-5.90
2022-12-27T09:46:00.567Z,-5.90
2022-12-27T09:48:34.361Z,-5.90
2022-12-27T09:51:09.253Z,-5.90
2022-12-27T09:53:46.564Z,-5.90
2022-12-27T09:56:25.076Z,-5.90
2022-12-27T09:58:57.693Z,-5.90
2022-12-27T10:01:33.987Z,-6.00
2022-12-27T10:04:05.804Z,-6.00
2022-12-27T10:06:58.001Z,-6.00
2022-12-27T10:09:40.874Z,-6.00
2022-12-27T10:12:27.980Z,-6.10
2022-12-27T10:15:13.891Z,-6.10
2022-12-27T10:17:57.639Z,-6.10
2022-12-27T10:20:45.043Z,-6.20
2022-12-27T10:23:19.657Z,-6.20
2022-12-27T10:25:51.549Z,-6.20
2022-12-27T10:28:28.926Z,-6.20
2022-12-27T10:31:02.688Z,-6.20
2022-12-27T10:33:36.465Z,-6.20
2022-12-27T10:36:12.482Z,-6.20
2022-12-27T10:38:42.857Z,-6.20
2022-12-27T10:41:41.009Z,-6.30
2022-12-27T10:44:14.448Z,-6.30
2022-12-27T10:46:46.732Z,-6.30
2022-12-27T10:49:28.353Z,-6.30
2022-12-27T10:52:00.821Z,-6.30
2022-12-27T10:54:32.277Z,-6.30
2022-12-27T10:57:19.927Z,-6.30
2022-12-27T11:00:20.015Z,-6.30
2022-12-27T11:02:54.463Z,-6.30
2022-12-27T11:05:28.159Z,-6.40
2022-12-27T11:07:58.505Z,-6.40
2022-12-27T11:10:31.933Z,-6.40
2022-12-27T11:13:03.611Z,-6.30
2022-12-27T11:15:36.093Z,-6.30
2022-12-27T11:18:13.274Z,-6.40
2022-12-27T11:20:50.308Z,-6.40
2022-12-27T11:23:23.272Z,-6.50
2022-12-27T11:25:56.120Z,-6.50
2022-12-27T11:28:31.640Z,-6.50
2022-12-27T11:31:04.194Z,-6.50
2022-12-27T11:33:39.905Z,-6.60
2022-12-27T11:36:13.924Z,-6.60
2022-12-27T11:38:48.628Z,-6.60
2022-12-27T11:41:27.773Z,-6.70
2022-12-27T11:44:02.311Z,-6.70
2022-12-27T11:46:41.058Z,-6.70
2022-12-27T11:49:20.305Z,-6.80
2022-12-27T11:52:21.775Z,-6.80
2022-12-27T11:55:17.951Z,-6.80
2022-12-27T11:58:20.827Z,-6.90
2022-12-27T12:01:05.300Z,-6.90
2022-12-27T12:04:04.294Z,-7.00
2022-12-27T12:06:49.550Z,-7.00
2022-12-27T12:09:37.136Z,-7.00
2022-12-27T12:12:43.080Z,-7.00
2022-12-27T12:15:41.127Z,-7.10
2022-12-27T12:18:25.672Z,-7.10
2022-12-27T12:21:29.271Z,-7.10
2022-12-27T12:24:34.379Z,-7.10
2022-12-27T12:27:28.104Z,-7.10
2022-12-27T12:30:23.844Z,-7.20
2022-12-27T12:33:12.818Z,-7.20
2022-12-27T12:36:09.243Z,-7.20
2022-12-27T12:38:43.608Z,-7.20
2022-12-27T12:41:48.362Z,-7.20
2022-12-27T12:44:53.769Z,-7.30
2022-12-27T12:47:51.287Z,-7.30
2022-12-27T12:50:38.244Z,-7.40
2022-12-27T12:53:32.375Z,-7.40
2022-12-27T12:56:16.344Z,-7.40
2022-12-27T12:58:55.948Z,-7.40
2022-12-27T13:01:50.935Z,-7.50
2022-12-27T13:04:42.586Z,-7.50
2022-12-27T13:07:41.613Z,-7.50
2022-12-27T13:10:45.829Z,-7.50
2022-12-27T13:13:24.085Z,-7.50
2022-12-27T13:16:13.625Z,-7.50
2022-12-27T13:18:54.744Z,-7.50
2022-12-27T13:21:40.493Z,-7.50
2022-12-27T13:24:29.390Z,-7.50
2022-12-27T13:27:09.116Z,-7.50
2022-12-27T13:29:53.605Z,-7.50
2022-12-27T13:32:36.698Z,-7.50
2022-12-27T13:35:27.397Z,-7.40
2022-12-27T13:38:08.363Z,-7.40
2022-12-27T13:41:04.964Z,-7.30
2022-12-27T13:43:58.421Z,-7.30
2022-12-27T13:46:57.712Z,-7.20
2022-12-27T13:50:01.549Z,-7.20
2022-12-27T13:53:00.307Z,-7.30
2022-12-27T13:55:44.512Z,-7.20
2022-12-27T13:58:59.791Z,-7.20
2022-12-27T14:01:48.372Z,-7.10
2022-12-27T14:04:43.297Z,-7.10
2022-12-27T14:07:50.215Z,-7.10
2022-12-27T14:10:35.342Z,-7.10
2022-12-27T14:13:08.509Z,-7.00
2022-12-27T14:16:11.663Z,-7.00
2022-12-27T14:18:58.914Z,-7.00
2022-12-27T14:21:53.392Z,-7.00
2022-12-27T14:24:53.843Z,-7.00
2022-12-27T14:28:11.544Z,-6.90
2022-12-27T14:31:29.872Z,-6.90
2022-12-27T14:34:30.372Z,-6.90
2022-12-27T14:37:47.564Z,-6.90
2022-12-27T14:40:50.148Z,-6.70
2022-12-27T14:43:56.223Z,-6.70
2022-12-27T14:47:02.100Z,-6.50
2022-12-27T14:50:11.540Z,-6.40
2022-12-27T14:53:15.521Z,-6.40
2022-12-27T14:55:57.863Z,-6.30
2022-12-27T14:58:49.205Z,-6.20
2022-12-27T15:01:28.407Z,-6.00
2022-12-27T15:04:14.485Z,-5.90
2022-12-27T15:07:10.563Z,-5.90
2022-12-27T15:09:51.599Z,-5.90
2022-12-27T15:12:29.656Z,-5.70
2022-12-27T15:15:19.571Z,-5.70
2022-12-27T15:18:11.995Z,-5.50
2022-12-27T15:20:58.444Z,-5.40
2022-12-27T15:23:37.161Z,-5.50
2022-12-27T15:26:20.336Z,-5.40
2022-12-27T15:29:20.414Z,-5.30
2022-12-27T15:31:59.861Z,-5.20
2022-12-27T15:34:49.189Z,-4.90
2022-12-27T15:37:53.594Z,-4.80
2022-12-27T15:40:31.556Z,-4.90
2022-12-27T15:43:10.368Z,-4.70
2022-12-27T15:45:54.009Z,-4.60
2022-12-27T15:48:55.629Z,-4.50
2022-12-27T15:51:35.222Z,-4.50
2022-12-27T15:54:26.570Z,-4.20
2022-12-27T15:57:19.118Z,-4.00
2022-12-27T15:59:52.431Z,-4.10
2022-12-27T16:02:54.600Z,-4.00
2022-12-27T16:05:53.205Z,-3.70
2022-12-27T16:08:35.730Z,-3.40
2022-12-27T16:11:09.698Z,-3.20
2022-12-27T16:13:48.769Z,-3.20
2022-12-27T16:16:54.460Z,-3.60
2022-12-27T16:19:51.223Z,-3.50
2022-12-27T16:22:32.815Z,-3.40
2022-12-27T16:25:17.556Z,-3.50
2022-12-27T16:27:54.459Z,-3.60
2022-12-27T16:30:38.099Z,-3.60
2022-12-27T16:33:09.555Z,-3.40
2022-12-27T16:35:41.695Z,-3.60
2022-12-27T16:38:24.790Z,-3.60
2022-12-27T16:41:02.531Z,-3.60
2022-12-27T16:43:55.310Z,-3.40
2022-12-27T16:47:01.070Z,-3.30
2022-12-27T16:50:03.685Z,-3.40
2022-12-27T16:52:51.168Z,-3.60
2022-12-27T16:55:55.470Z,-3.60
2022-12-27T16:58:35.309Z,-3.50
2022-12-27T17:01:06.842Z,-3.60
2022-12-27T17:03:49.785Z,-3.60
2022-12-27T17:06:55.808Z,-3.80
2022-12-27T17:09:47.084Z,-3.80
2022-12-27T17:12:27.013Z,-4.00
2022-12-27T17:15:05.442Z,-4.00
2022-12-27T17:17:37.391Z,-3.70
2022-12-27T17:20:16.182Z,-3.70
2022-12-27T17:22:46.422Z,-3.60
2022-12-27T17:25:23.592Z,-3.70
2022-12-27T17:28:05.160Z,-3.70
2022-12-27T17:30:48.151Z,-3.60
2022-12-27T17:33:29.786Z,-3.60
2022-12-27T17:36:20.501Z,-3.30
2022-12-27T17:39:01.215Z,-3.20
2022-12-27T17:42:00.529Z,-3.30
2022-12-27T17:44:40.955Z,-3.20
2022-12-27T17:47:26.875Z,-2.90
2022-12-27T17:50:00.334Z,-2.90
2022-12-27T17:52:47.612Z,-2.80
2022-12-27T17:55:38.537Z,-3.00
2022-12-27T17:58:13.085Z,-2.90
2022-12-27T18:00:55.003Z,-3.00
2022-12-27T18:03:27.788Z,-3.10
2022-12-27T18:05:58.107Z,-3.00
2022-12-27T18:08:30.206Z,-2.90
2022-12-27T18:11:01.793Z,-2.90
2022-12-27T18:13:36.893Z,-2.80
2022-12-27T18:16:16.369Z,-2.80
2022-12-27T18:18:51.219Z,-2.70
2022-12-27T18:21:26.556Z,-2.70
2022-12-27T18:23:57.386Z,-2.80
2022-12-27T18:26:39.178Z,-2.80
2022-12-27T18:29:14.055Z,-2.70
2022-12-27T18:31:50.750Z,-2.70
2022-12-27T18:34:26.453Z,-2.60
2022-12-27T18:37:01.729Z,-2.50
2022-12-27T18:39:33.459Z,-2.50
2022-12-27T18:42:06.807Z,-2.50
2022-12-27T18:44:46.606Z,-2.40
2022-12-27T18:47:22.679Z,-2.40
2022-12-27T18:49:57.109Z,-2.20
2022-12-27T18:52:32.439Z,-2.30
2022-12-27T18:55:16.872Z,-2.20
2022-12-27T18:57:47.492Z,-2.00
2022-12-27T19:00:24.899Z,-2.00
2022-12-27T19:02:57.002Z,-2.00
2022-12-27T19:05:32.362Z,-2.00
2022-12-27T19:08:12.704Z,-2.20
2022-12-27T19:10:51.228Z,-2.10
2022-12-27T19:13:27.110Z,-2.10
2022-12-27T19:16:00.679Z,-2.20
2022-12-27T19:18:33.918Z,-2.10
2022-12-27T19:21:08.421Z,-2.10
2022-12-27T19:23:40.058Z,-2.10
2022-12-27T19:26:31.915Z,-2.20
2022-12-27T19:29:05.225Z,-2.20
2022-12-27T19:31:38.235Z,-2.10
2022-12-27T19:34:11.694Z,-2.30
2022-12-27T19:36:43.830Z,-2.30
2022-12-27T19:39:23.659Z,-2.30
2022-12-27T19:42:01.083Z,-2.30
2022-12-27T19:44:31.946Z,-2.40
2022-12-27T19:47:03.618Z,-2.50
2022-12-27T19:49:42.820Z,-2.50
2022-12-27T19:52:18.605Z,-2.60
2022-12-27T19:54:48.894Z,-2.70
2022-12-27T19:57:18.960Z,-2.80
2022-12-27T19:59:49.027Z,-2.90
2022-12-27T20:02:21.903Z,-2.90
2022-12-27T20:04:52.104Z,-3.00
2022-12-27T20:07:25.252Z,-3.10
2022-12-27T20:09:55.328Z,-3.10
2022-12-27T20:12:25.423Z,-3.20
2022-12-27T20:14:55.511Z,-3.20
2022-12-27T20:17:29.185Z,-3.30
2022-12-27T20:19:59.631Z,-3.40
2022-12-27T20:22:29.709Z,-3.40
2022-12-27T20:24:59.791Z,-3.50
2022-12-27T20:27:30.147Z,-3.60
2022-12-27T20:30:00.443Z,-3.70
2022-12-27T20:32:32.295Z,-3.80
2022-12-27T20:35:02.601Z,-3.90
2022-12-27T20:37:32.663Z,-4.00
2022-12-27T20:40:02.943Z,-4.10
2022-12-27T20:42:33.005Z,-4.10
2022-12-27T20:45:03.072Z,-4.20
2022-12-27T20:47:34.722Z,-4.30
2022-12-27T20:50:04.944Z,-4.30
2022-12-27T20:52:35.007Z,-4.40
2022-12-27T20:55:05.222Z,-4.50
2022-12-27T20:57:35.940Z,-4.50
2022-12-27T21:00:07.449Z,-4.60
2022-12-27T21:02:41.854Z,-4.70
2022-12-27T21:05:13.068Z,-4.70
2022-12-27T21:07:43.102Z,-4.80
2022-12-27T21:10:13.594Z,-4.80
2022-12-27T21:12:43.656Z,-4.90
2022-12-27T21:15:14.027Z,-5.00
2022-12-27T21:17:46.340Z,-5.00
2022-12-27T21:20:19.707Z,-5.10
2022-12-27T21:22:50.317Z,-5.10
2022-12-27T21:25:21.099Z,-5.20
2022-12-27T21:27:51.432Z,-5.30
2022-12-27T21:30:21.752Z,-5.30
2022-12-27T21:32:57.308Z,-5.40
2022-12-27T21:35:27.807Z,-5.40
2022-12-27T21:37:58.049Z,-5.50
2022-12-27T21:40:28.831Z,-5.60
2022-12-27T21:42:59.436Z,-5.60
2022-12-27T21:45:30.047Z,-5.70
2022-12-27T21:48:04.774Z,-5.70
2022-12-27T21:50:37.502Z,-5.70
2022-12-27T21:53:07.968Z,-5.80
2022-12-27T21:55:39.482Z,-5.80
2022-12-27T21:58:11.461Z,-5.90
2022-12-27T22:00:41.714Z,-5.90
2022-12-27T22:03:13.772Z,-5.90
2022-12-27T22:05:48.573Z,-5.90
2022-12-27T22:08:19.470Z,-5.90
2022-12-27T22:10:57.808Z,-5.90
2022-12-27T22:13:27.908Z,-5.90
2022-12-27T22:15:58.859Z,-5.90
2022-12-27T22:18:33.833Z,-5.90
2022-12-27T22:21:06.101Z,-5.80
2022-12-27T22:23:36.939Z,-5.80
2022-12-27T22:26:07.827Z,-5.80
2022-12-27T22:28:37.869Z,-5.80
2022-12-27T22:31:08.918Z,-5.80
2022-12-27T22:33:40.847Z,-5.80
2022-12-27T22:36:13.645Z,-5.80
2022-12-27T22:38:49.158Z,-5.90
2022-12-27T22:41:21.821Z,-5.90
2022-12-27T22:43:53.977Z,-5.90
2022-12-27T22:46:24.461Z,-6.00
2022-12-27T22:48:58.239Z,-6.00
2022-12-27T22:51:29.596Z,-6.00
2022-12-27T22:54:00.532Z,-5.90
2022-12-27T22:56:33.111Z,-5.90
2022-12-27T22:59:03.439Z,-5.90
2022-12-27T23:01:35.459Z,-5.90
2022-12-27T23:04:08.037Z,-5.80
2022-12-27T23:06:39.528Z,-5.90
2022-12-27T23:09:09.818Z,-5.80
2022-12-27T23:11:41.413Z,-5.80
2022-12-27T23:14:14.642Z,-5.80
2022-12-27T23:16:46.863Z,-5.80
2022-12-27T23:19:20.643Z,-5.90
2022-12-27T23:21:51.476Z,-5.90
2022-12-27T23:24:22.394Z,-5.90
2022-12-27T23:26:52.789Z,-5.90
2022-12-27T23:29:22.856Z,-6.00
2022-12-27T23:31:54.840Z,-6.00
2022-12-27T23:34:29.125Z,-6.10
2022-12-27T23:36:59.658Z,-6.10
2022-12-27T23:39:30.123Z,-6.10
2022-12-27T23:42:00.260Z,-6.10
2022-12-27T23:44:33.854Z,-6.10
2022-12-27T23:47:07.259Z,-6.10
2022-12-27T23:49:38.969Z,-6.10
2022-12-27T23:52:09.089Z,-6.10
2022-12-27T23:54:39.325Z,-6.10
2022-12-27T23:57:20.345Z,-6.10
2022-12-27T23:59:55.124Z,-6.10
